Time,TemperatureF,DewpointF,PressureIn,WindDirection,WindDirectionDegrees,WindSpeedMPH,WindSpeedGustMPH,Humidity,HourlyPrecipIn,Conditions,Clouds,dailyrainin,SoftwareType,DateUTC
2013-03-27 00:00:00,27.3,15.3,29.94,WSW,237,0.0,0.0,60,0.00,,,0.00,WUHU216WMR968SP,2013-03-27 05:00:00,
2013-03-27 00:05:00,27.3,15.7,29.94,WSW,237,0.0,0.0,61,0.00,,,0.00,WUHU216WMR968SP,2013-03-27 05:05:00,
2013-03-27 00:10:00,27.3,16.0,29.94,WSW,237,0.0,0.0,62,0.00,,,0.00,WUHU216WMR968SP,2013-03-27 05:10:00,
2013-03-27 00:15:00,27.3,16.0,29.94,WSW,237,0.0,0.0,62,0.00,,,0.00,WUHU216WMR968SP,2013-03-27 05:15:00,
2013-03-27 00:20:00,27.1,15.9,29.94,WSW,237,0.0,0.0,62,0.00,,,0.00,WUHU216WMR968SP,2013-03-27 05:20:00,
2013-03-27 00:25:00,27.0,15.8,29.94,WSW,237,0.0,0.0,62,0.00,,,0.00,WUHU216WMR968SP,2013-03-27 05:25:00,
2013-03-27 00:30:00,27.1,16.2,29.94,WSW,237,0.0,0.0,63,0.00,,,0.00,WUHU216WMR968SP,2013-03-27 05:30:00,
2013-03-27 00:35:00,27.1,16.6,29.94,WSW,237,0.0,0.0,64,0.00,,,0.00,WUHU216WMR968SP,2013-03-27 05:35:00,
2013-03-27 00:40:00,27.1,16.6,29.94,WSW,237,0.0,0.0,64,0.00,,,0.00,WUHU216WMR968SP,2013-03-27 05:40:00,
2013-03-27 00:45:00,27.0,16.5,29.94,WSW,237,0.0,0.0,64,0.00,,,0.00,WUHU216WMR968SP,2013-03-27 05:45:00,
2013-03-27 00:50:00,27.0,16.5,29.94,WSW,237,0.0,0.0,64,0.00,,,0.00,WUHU216WMR968SP,2013-03-27 05:50:00,
2013-03-27 00:55:00,27.0,16.5,29.94,WSW,237,0.0,0.0,64,0.00,,,0.00,WUHU216WMR968SP,2013-03-27 05:55:00,
2013-03-27 01:00:00,27.0,16.5,29.94,WSW,237,0.0,0.0,64,0.00,,,0.00,WUHU216WMR968SP,2013-03-27 06:00:00,
2013-03-27 01:05:00,27.0,16.9,29.94,WSW,237,0.0,0.0,65,0.00,,,0.00,WUHU216WMR968SP,2013-03-27 06:05:00,
2013-03-27 01:10:00,27.0,17.2,29.94,WSW,237,0.0,0.0,66,0.00,,,0.00,WUHU216WMR968SP,2013-03-27 06:10:00,
2013-03-27 01:15:00,26.8,17.0,29.94,WSW,237,0.0,0.0,66,0.00,,,0.00,WUHU216WMR968SP,2013-03-27 06:15:00,
2013-03-27 01:20:00,26.8,17.0,29.94,WSW,237,0.0,0.0,66,0.00,,,0.00,WUHU216WMR968SP,2013-03-27 06:20:00,
2013-03-27 01:25:00,26.6,17.2,29.94,WSW,237,0.0,0.0,67,0.00,,,0.00,WUHU216WMR968SP,2013-03-27 06:25:00,
2013-03-27 01:30:00,26.4,17.0,29.94,WSW,237,0.0,0.0,67,0.00,,,0.00,WUHU216WMR968SP,2013-03-27 06:30:00,
2013-03-27 01:35:00,26.2,16.8,29.94,WSW,237,0.0,0.0,67,0.00,,,0.00,WUHU216WMR968SP,2013-03-27 06:35:00,
2013-03-27 01:40:00,26.1,16.7,29.94,WSW,237,0.0,0.0,67,0.00,,,0.00,WUHU216WMR968SP,2013-03-27 06:40:00,
2013-03-27 01:45:00,26.1,16.7,29.94,WSW,237,0.0,0.0,67,0.00,,,0.00,WUHU216WMR968SP,2013-03-27 06:45:00,
2013-03-27 01:50:00,25.9,16.5,29.94,WSW,237,0.0,0.0,67,0.00,,,0.00,WUHU216WMR968SP,2013-03-27 06:50:00,
2013-03-27 01:55:00,25.9,16.8,29.94,WSW,237,0.0,0.0,68,0.00,,,0.00,WUHU216WMR968SP,2013-03-27 06:55:00,
2013-03-27 02:00:00,25.9,16.8,29.94,WSW,237,0.0,0.0,68,0.00,,,0.00,WUHU216WMR968SP,2013-03-27 07:00:00,
2013-03-27 02:05:00,26.1,17.0,29.94,WSW,237,0.0,0.0,68,0.00,,,0.00,WUHU216WMR968SP,2013-03-27 07:05:00,
2013-03-27 02:10:00,26.1,17.4,29.94,WSW,237,0.0,0.0,69,0.00,,,0.00,WUHU216WMR968SP,2013-03-27 07:10:00,
2013-03-27 02:15:00,25.9,17.2,29.94,WSW,237,0.0,0.0,69,0.00,,,0.00,WUHU216WMR968SP,2013-03-27 07:15:00,
2013-03-27 02:20:00,25.9,17.2,29.94,WSW,237,0.0,0.0,69,0.00,,,0.00,WUHU216WMR968SP,2013-03-27 07:20:00,
2013-03-27 02:25:00,25.9,17.2,29.94,WSW,237,0.0,0.0,69,0.00,,,0.00,WUHU216WMR968SP,2013-03-27 07:25:00,
2013-03-27 02:30:00,25.7,17.0,29.94,WSW,237,0.0,0.0,69,0.00,,,0.00,WUHU216WMR968SP,2013-03-27 07:30:00,
2013-03-27 02:35:00,25.5,16.8,29.94,WSW,237,0.0,0.0,69,0.00,,,0.00,WUHU216WMR968SP,2013-03-27 07:35:00,
2013-03-27 02:40:00,25.5,17.1,29.94,WSW,237,0.0,0.0,70,0.00,,,0.00,WUHU216WMR968SP,2013-03-27 07:40:00,
2013-03-27 02:45:00,25.5,17.1,29.94,WSW,237,0.0,0.0,70,0.00,,,0.00,WUHU216WMR968SP,2013-03-27 07:45:00,
2013-03-27 02:50:00,25.5,17.1,29.94,WSW,237,0.0,0.0,70,0.00,,,0.00,WUHU216WMR968SP,2013-03-27 07:50:00,
2013-03-27 02:55:00,25.3,16.9,29.94,WSW,237,0.0,0.0,70,0.00,,,0.00,WUHU216WMR968SP,2013-03-27 07:55:00,
2013-03-27 03:00:00,25.3,16.9,29.94,WSW,237,0.0,0.0,70,0.00,,,0.00,WUHU216WMR968SP,2013-03-27 08:00:00,
2013-03-27 03:05:00,25.3,16.9,29.94,WSW,237,0.0,0.0,70,0.00,,,0.00,WUHU216WMR968SP,2013-03-27 08:05:00,
2013-03-27 03:10:00,25.2,16.8,29.94,WSW,237,0.0,0.0,70,0.00,,,0.00,WUHU216WMR968SP,2013-03-27 08:10:00,
2013-03-27 03:15:00,25.2,16.8,29.94,WSW,237,0.0,0.0,70,0.00,,,0.00,WUHU216WMR968SP,2013-03-27 08:15:00,
2013-03-27 03:20:00,25.2,16.8,29.94,WSW,237,0.0,0.0,70,0.00,,,0.00,WUHU216WMR968SP,2013-03-27 08:20:00,
2013-03-27 03:25:00,25.5,17.5,29.94,WSW,237,0.0,0.0,71,0.00,,,0.00,WUHU216WMR968SP,2013-03-27 08:25:00,
2013-03-27 03:30:00,25.5,17.5,29.94,WSW,237,0.0,0.0,71,0.00,,,0.00,WUHU216WMR968SP,2013-03-27 08:30:00,
2013-03-27 03:35:00,25.3,17.6,29.94,WSW,237,0.0,0.0,72,0.00,,,0.00,WUHU216WMR968SP,2013-03-27 08:35:00,
2013-03-27 03:40:00,25.2,17.5,29.94,WSW,237,0.0,0.0,72,0.00,,,0.00,WUHU216WMR968SP,2013-03-27 08:40:00,
2013-03-27 03:45:00,25.0,17.3,29.94,WSW,237,0.0,0.0,72,0.00,,,0.00,WUHU216WMR968SP,2013-03-27 08:45:00,
2013-03-27 03:50:00,24.8,17.4,29.94,WSW,237,0.0,0.0,73,0.00,,,0.00,WUHU216WMR968SP,2013-03-27 08:50:00,
2013-03-27 03:55:00,24.8,17.4,29.94,WSW,237,0.0,0.0,73,0.00,,,0.00,WUHU216WMR968SP,2013-03-27 08:55:00,
2013-03-27 04:00:00,24.6,17.2,29.94,WSW,237,0.0,0.0,73,0.00,,,0.00,WUHU216WMR968SP,2013-03-27 09:00:00,
2013-03-27 04:05:00,24.6,17.2,29.94,WSW,237,0.0,0.0,73,0.00,,,0.00,WUHU216WMR968SP,2013-03-27 09:05:00,
2013-03-27 04:10:00,24.4,17.0,29.94,WSW,237,0.0,0.0,73,0.00,,,0.00,WUHU216WMR968SP,2013-03-27 09:10:00,
2013-03-27 04:15:00,24.4,17.0,29.94,WSW,237,0.0,0.0,73,0.00,,,0.00,WUHU216WMR968SP,2013-03-27 09:15:00,
2013-03-27 04:20:00,24.4,17.3,29.94,WSW,237,0.0,0.0,74,0.00,,,0.00,WUHU216WMR968SP,2013-03-27 09:20:00,
2013-03-27 04:25:00,24.3,17.2,29.94,WSW,237,0.0,0.0,74,0.00,,,0.00,WUHU216WMR968SP,2013-03-27 09:25:00,
2013-03-27 04:30:00,24.3,17.2,29.94,WSW,237,0.0,0.0,74,0.00,,,0.00,WUHU216WMR968SP,2013-03-27 09:30:00,
2013-03-27 04:35:00,24.3,17.2,29.94,WSW,237,0.0,0.0,74,0.00,,,0.00,WUHU216WMR968SP,2013-03-27 09:35:00,
2013-03-27 04:40:00,24.3,17.2,29.94,WSW,237,0.0,0.0,74,0.00,,,0.00,WUHU216WMR968SP,2013-03-27 09:40:00,
2013-03-27 04:45:00,24.3,17.2,29.94,WSW,237,0.0,0.0,74,0.00,,,0.00,WUHU216WMR968SP,2013-03-27 09:45:00,
2013-03-27 04:50:00,24.1,17.0,29.94,WSW,237,0.0,0.0,74,0.00,,,0.00,WUHU216WMR968SP,2013-03-27 09:50:00,
2013-03-27 04:55:00,24.3,17.2,29.94,WSW,237,0.0,0.0,74,0.00,,,0.00,WUHU216WMR968SP,2013-03-27 09:55:00,
2013-03-27 05:00:00,24.4,17.3,29.94,WSW,237,0.0,0.0,74,0.00,,,0.00,WUHU216WMR968SP,2013-03-27 10:00:00,
2013-03-27 05:05:00,25.2,18.4,29.94,WSW,237,0.0,0.0,75,0.00,,,0.00,WUHU216WMR968SP,2013-03-27 10:05:00,
2013-03-27 05:10:00,25.0,18.2,29.94,WSW,237,0.0,0.0,75,0.00,,,0.00,WUHU216WMR968SP,2013-03-27 10:10:00,
2013-03-27 05:15:00,24.6,17.8,29.94,WSW,237,0.0,0.0,75,0.00,,,0.00,WUHU216WMR968SP,2013-03-27 10:15:00,
2013-03-27 05:20:00,24.3,17.9,29.94,WSW,237,0.0,0.0,76,0.00,,,0.00,WUHU216WMR968SP,2013-03-27 10:20:00,
2013-03-27 05:25:00,24.1,17.7,29.94,WSW,237,0.0,0.0,76,0.00,,,0.00,WUHU216WMR968SP,2013-03-27 10:25:00,
2013-03-27 05:30:00,24.1,17.7,29.94,WSW,237,0.0,0.0,76,0.00,,,0.00,WUHU216WMR968SP,2013-03-27 10:30:00,
2013-03-27 05:35:00,23.9,17.5,29.94,WSW,237,0.0,0.0,76,0.00,,,0.00,WUHU216WMR968SP,2013-03-27 10:35:00,
2013-03-27 05:40:00,23.9,17.5,29.94,WSW,237,0.0,0.0,76,0.00,,,0.00,WUHU216WMR968SP,2013-03-27 10:40:00,
2013-03-27 05:45:00,23.7,17.3,29.94,WSW,237,0.0,0.0,76,0.00,,,0.00,WUHU216WMR968SP,2013-03-27 10:45:00,
2013-03-27 05:50:00,23.7,17.3,29.94,WSW,237,0.0,0.0,76,0.00,,,0.00,WUHU216WMR968SP,2013-03-27 10:50:00,
2013-03-27 05:55:00,23.7,17.3,29.94,WSW,237,0.0,0.0,76,0.00,,,0.00,WUHU216WMR968SP,2013-03-27 10:55:00,
2013-03-27 06:00:00,23.5,17.1,29.94,WSW,237,0.0,0.0,76,0.00,,,0.00,WUHU216WMR968SP,2013-03-27 11:00:00,
2013-03-27 06:05:00,23.5,17.1,29.94,WSW,237,0.0,0.0,76,0.00,,,0.00,WUHU216WMR968SP,2013-03-27 11:05:00,
2013-03-27 06:10:00,23.5,17.1,29.94,WSW,237,0.0,0.0,76,0.00,,,0.00,WUHU216WMR968SP,2013-03-27 11:10:00,
2013-03-27 06:15:00,23.4,17.0,29.94,WSW,237,0.0,0.0,76,0.00,,,0.00,WUHU216WMR968SP,2013-03-27 11:15:00,
2013-03-27 06:20:00,23.4,17.0,29.94,WSW,237,0.0,0.0,76,0.00,,,0.00,WUHU216WMR968SP,2013-03-27 11:20:00,
2013-03-27 06:25:00,23.5,17.1,29.94,WSW,237,0.0,0.0,76,0.00,,,0.00,WUHU216WMR968SP,2013-03-27 11:25:00,
2013-03-27 06:30:00,23.4,17.3,29.94,WSW,237,0.0,0.0,77,0.00,,,0.00,WUHU216WMR968SP,2013-03-27 11:30:00,
2013-03-27 06:35:00,23.4,17.0,29.94,WSW,237,0.0,0.0,76,0.00,,,0.00,WUHU216WMR968SP,2013-03-27 11:35:00,
2013-03-27 06:40:00,23.4,17.3,29.94,WSW,237,0.0,0.0,77,0.00,,,0.00,WUHU216WMR968SP,2013-03-27 11:40:00,
2013-03-27 06:45:00,23.4,17.3,29.94,WSW,237,0.0,0.0,77,0.00,,,0.00,WUHU216WMR968SP,2013-03-27 11:45:00,
2013-03-27 06:50:00,23.4,17.3,29.97,WSW,237,0.0,0.0,77,0.00,,,0.00,WUHU216WMR968SP,2013-03-27 11:50:00,
2013-03-27 06:55:00,23.4,17.3,29.97,WSW,237,0.0,0.0,77,0.00,,,0.00,WUHU216WMR968SP,2013-03-27 11:55:00,
2013-03-27 07:00:00,23.5,17.4,29.97,WSW,237,0.0,0.0,77,0.00,,,0.00,WUHU216WMR968SP,2013-03-27 12:00:00,
2013-03-27 07:05:00,23.5,17.4,29.97,WSW,237,0.0,0.0,77,0.00,,,0.00,WUHU216WMR968SP,2013-03-27 12:05:00,
2013-03-27 07:10:00,23.7,17.6,29.97,WSW,237,0.0,0.0,77,0.00,,,0.00,WUHU216WMR968SP,2013-03-27 12:10:00,
2013-03-27 07:15:00,23.7,17.6,29.97,WSW,237,0.0,0.0,77,0.00,,,0.00,WUHU216WMR968SP,2013-03-27 12:15:00,
2013-03-27 07:20:00,24.1,18.2,29.97,WSW,237,0.0,0.0,78,0.00,,,0.00,WUHU216WMR968SP,2013-03-27 12:20:00,
2013-03-27 07:25:00,24.4,18.5,29.97,WSW,237,0.0,0.0,78,0.00,,,0.00,WUHU216WMR968SP,2013-03-27 12:25:00,
2013-03-27 07:30:00,24.8,18.9,29.97,WSW,237,0.0,0.0,78,0.00,,,0.00,WUHU216WMR968SP,2013-03-27 12:30:00,
2013-03-27 07:35:00,25.2,19.3,29.97,WSW,237,0.0,0.0,78,0.00,,,0.00,WUHU216WMR968SP,2013-03-27 12:35:00,
2013-03-27 07:40:00,25.5,19.6,29.97,WSW,237,0.0,0.0,78,0.00,,,0.00,WUHU216WMR968SP,2013-03-27 12:40:00,
2013-03-27 07:45:00,26.1,20.2,29.97,WSW,237,0.0,0.0,78,0.00,,,0.00,WUHU216WMR968SP,2013-03-27 12:45:00,
2013-03-27 07:50:00,26.6,21.0,29.97,WSW,238,0.0,0.0,79,0.00,,,0.00,WUHU216WMR968SP,2013-03-27 12:50:00,
2013-03-27 07:55:00,27.3,21.7,29.97,WSW,237,0.0,0.0,79,0.00,,,0.00,WUHU216WMR968SP,2013-03-27 12:55:00,
2013-03-27 08:00:00,28.0,22.3,29.97,WSW,237,0.0,2.2,79,0.00,,,0.00,WUHU216WMR968SP,2013-03-27 13:00:00,
2013-03-27 08:05:00,28.8,23.1,29.97,WSW,237,0.0,2.7,79,0.00,,,0.00,WUHU216WMR968SP,2013-03-27 13:05:00,
2013-03-27 08:10:00,29.5,23.8,29.97,WSW,237,0.0,2.7,79,0.00,,,0.00,WUHU216WMR968SP,2013-03-27 13:10:00,
2013-03-27 08:15:00,30.4,24.7,29.97,WSW,237,0.0,2.7,79,0.00,,,0.00,WUHU216WMR968SP,2013-03-27 13:15:00,
2013-03-27 08:20:00,31.1,25.4,29.97,WSW,237,0.0,2.7,79,0.00,,,0.00,WUHU216WMR968SP,2013-03-27 13:20:00,
2013-03-27 08:25:00,31.8,26.0,29.97,WSW,237,0.0,2.7,79,0.00,,,0.00,WUHU216WMR968SP,2013-03-27 13:25:00,
2013-03-27 08:30:00,32.5,26.7,29.97,South,179,2.7,3.6,79,0.00,,,0.00,WUHU216WMR968SP,2013-03-27 13:30:00,
2013-03-27 08:35:00,33.3,27.5,30.00,South,185,0.0,3.6,79,0.00,,,0.00,WUHU216WMR968SP,2013-03-27 13:35:00,
2013-03-27 08:40:00,34.2,28.4,30.00,South,185,0.0,3.6,79,0.00,,,0.00,WUHU216WMR968SP,2013-03-27 13:40:00,
2013-03-27 08:45:00,34.9,29.1,30.00,SSW,199,3.6,4.0,79,0.00,,,0.00,WUHU216WMR968SP,2013-03-27 13:45:00,
2013-03-27 08:50:00,35.6,29.4,30.00,SSW,202,3.5,4.5,78,0.00,,,0.00,WUHU216WMR968SP,2013-03-27 13:50:00,
2013-03-27 08:55:00,36.1,29.6,30.00,South,189,3.1,4.5,77,0.00,,,0.00,WUHU216WMR968SP,2013-03-27 13:55:00,
2013-03-27 09:00:00,36.9,30.1,30.00,South,181,3.6,4.9,76,0.00,,,0.00,WUHU216WMR968SP,2013-03-27 14:00:00,
2013-03-27 09:05:00,37.6,28.4,30.00,South,183,2.8,5.8,69,0.00,,,0.00,WUHU216WMR968SP,2013-03-27 14:05:00,
2013-03-27 09:10:00,38.1,22.5,30.00,South,188,0.0,5.8,53,0.00,,,0.00,WUHU216WMR968SP,2013-03-27 14:10:00,
2013-03-27 09:15:00,39.2,22.1,30.00,SSW,209,4.3,5.4,50,0.00,,,0.00,WUHU216WMR968SP,2013-03-27 14:15:00,
2013-03-27 09:20:00,40.3,21.0,30.00,SSW,193,5.1,6.3,46,0.00,,,0.00,WUHU216WMR968SP,2013-03-27 14:20:00,
2013-03-27 09:25:00,41.2,20.2,30.00,SW,220,3.7,6.3,43,0.00,,,0.00,WUHU216WMR968SP,2013-03-27 14:25:00,
2013-03-27 09:30:00,41.7,18.9,30.00,SSW,196,0.0,6.3,40,0.00,,,0.00,WUHU216WMR968SP,2013-03-27 14:30:00,
2013-03-27 09:35:00,41.9,17.9,30.00,West,271,0.0,5.4,38,0.00,,,0.00,WUHU216WMR968SP,2013-03-27 14:35:00,
2013-03-27 09:40:00,42.1,18.1,30.00,SSW,198,3.1,5.4,38,0.00,,,0.00,WUHU216WMR968SP,2013-03-27 14:40:00,
2013-03-27 09:45:00,42.8,18.1,30.00,SW,215,3.1,5.8,37,0.00,,,0.00,WUHU216WMR968SP,2013-03-27 14:45:00,
2013-03-27 09:50:00,43.3,19.2,30.00,WSW,237,0.0,5.8,38,0.00,,,0.00,WUHU216WMR968SP,2013-03-27 14:50:00,
2013-03-27 09:55:00,43.5,17.4,30.00,West,263,0.0,3.6,35,0.00,,,0.00,WUHU216WMR968SP,2013-03-27 14:55:00,
2013-03-27 10:00:00,44.2,18.0,30.00,WSW,243,4.5,8.1,35,0.00,,,0.00,WUHU216WMR968SP,2013-03-27 15:00:00,
2013-03-27 10:05:00,44.4,17.5,30.00,SW,215,2.6,8.1,34,0.00,,,0.00,WUHU216WMR968SP,2013-03-27 15:05:00,
2013-03-27 10:10:00,44.8,16.5,30.00,South,182,2.2,6.3,32,0.00,,,0.00,WUHU216WMR968SP,2013-03-27 15:10:00,
2013-03-27 10:15:00,45.3,16.2,30.00,WNW,290,2.2,5.8,31,0.00,,,0.00,WUHU216WMR968SP,2013-03-27 15:15:00,
2013-03-27 10:20:00,45.7,17.3,30.00,SSW,212,3.6,6.7,32,0.00,,,0.00,WUHU216WMR968SP,2013-03-27 15:20:00,
2013-03-27 10:25:00,45.5,16.4,30.00,West,271,0.0,6.7,31,0.00,,,0.00,WUHU216WMR968SP,2013-03-27 15:25:00,
2013-03-27 10:30:00,46.2,17.0,30.00,WSW,247,0.0,3.6,31,0.00,,,0.00,WUHU216WMR968SP,2013-03-27 15:30:00,
2013-03-27 10:35:00,46.9,19.0,30.00,SSW,196,4.2,7.6,33,0.00,,,0.00,WUHU216WMR968SP,2013-03-27 15:35:00,
2013-03-27 10:40:00,46.9,16.8,30.00,SW,236,2.8,7.6,30,0.00,,,0.00,WUHU216WMR968SP,2013-03-27 15:40:00,
2013-03-27 10:45:00,47.5,17.4,30.00,SSW,196,7.2,8.1,30,0.00,,,0.00,WUHU216WMR968SP,2013-03-27 15:45:00,
2013-03-27 10:50:00,48.2,17.2,30.00,SSW,197,4.9,8.1,29,0.00,,,0.00,WUHU216WMR968SP,2013-03-27 15:50:00,
2013-03-27 10:55:00,48.7,16.8,30.00,ENE,60,0.0,7.6,28,0.00,,,0.00,WUHU216WMR968SP,2013-03-27 15:55:00,
2013-03-27 11:00:00,49.1,18.0,30.00,SSE,150,4.0,7.2,29,0.00,,,0.00,WUHU216WMR968SP,2013-03-27 16:00:00,
2013-03-27 11:05:00,50.0,18.0,30.00,SSE,166,5.8,7.6,28,0.00,,,0.00,WUHU216WMR968SP,2013-03-27 16:05:00,
2013-03-27 11:10:00,50.5,18.4,30.00,South,185,5.2,8.7,28,0.00,,,0.00,WUHU216WMR968SP,2013-03-27 16:10:00,
2013-03-27 11:15:00,50.7,17.7,30.00,South,183,2.8,8.7,27,0.00,,,0.00,WUHU216WMR968SP,2013-03-27 16:15:00,
2013-03-27 11:20:00,50.0,16.3,30.00,SW,229,2.4,8.1,26,0.00,,,0.00,WUHU216WMR968SP,2013-03-27 16:20:00,
2013-03-27 11:25:00,49.3,16.5,30.00,SW,228,5.4,7.6,27,0.00,,,0.00,WUHU216WMR968SP,2013-03-27 16:25:00,
2013-03-27 11:30:00,49.6,16.8,30.00,South,184,3.8,7.6,27,0.00,,,0.00,WUHU216WMR968SP,2013-03-27 16:30:00,
2013-03-27 11:35:00,50.2,17.3,30.00,SW,224,3.2,7.6,27,0.00,,,0.00,WUHU216WMR968SP,2013-03-27 16:35:00,
2013-03-27 11:40:00,49.8,16.9,30.00,WNW,294,2.2,7.6,27,0.00,,,0.00,WUHU216WMR968SP,2013-03-27 16:40:00,
2013-03-27 11:45:00,49.3,16.5,30.00,North,5,2.7,5.8,27,0.00,,,0.00,WUHU216WMR968SP,2013-03-27 16:45:00,
2013-03-27 11:50:00,49.3,16.5,30.00,SSW,195,2.7,5.8,27,0.00,,,0.00,WUHU216WMR968SP,2013-03-27 16:50:00,
2013-03-27 11:55:00,49.8,16.9,30.00,South,189,4.8,7.6,27,0.00,,,0.00,WUHU216WMR968SP,2013-03-27 16:55:00,
2013-03-27 12:00:00,50.5,17.6,30.00,South,187,4.9,7.6,27,0.00,,,0.00,WUHU216WMR968SP,2013-03-27 17:00:00,
2013-03-27 12:05:00,51.4,18.3,30.00,South,173,3.6,6.3,27,0.00,,,0.00,WUHU216WMR968SP,2013-03-27 17:05:00,
2013-03-27 12:10:00,52.0,18.0,30.00,South,178,3.6,8.3,26,0.00,,,0.00,WUHU216WMR968SP,2013-03-27 17:10:00,
2013-03-27 12:15:00,52.2,18.2,30.00,SSW,206,4.6,10.1,26,0.00,,,0.00,WUHU216WMR968SP,2013-03-27 17:15:00,
2013-03-27 12:20:00,51.8,17.8,30.00,West,264,2.7,10.1,26,0.00,,,0.00,WUHU216WMR968SP,2013-03-27 17:20:00,
2013-03-27 12:25:00,51.4,17.5,30.00,WSW,254,3.0,8.1,26,0.00,,,0.00,WUHU216WMR968SP,2013-03-27 17:25:00,
2013-03-27 12:30:00,51.3,17.4,30.00,NNE,27,0.0,8.1,26,0.00,,,0.00,WUHU216WMR968SP,2013-03-27 17:30:00,
2013-03-27 12:35:00,51.1,17.2,29.97,SSW,197,2.2,4.0,26,0.00,,,0.00,WUHU216WMR968SP,2013-03-27 17:35:00,
2013-03-27 12:40:00,51.3,17.4,29.97,NW,319,3.1,5.8,26,0.00,,,0.00,WUHU216WMR968SP,2013-03-27 17:40:00,
2013-03-27 12:45:00,51.3,17.4,29.97,NW,311,4.0,6.3,26,0.00,,,0.00,WUHU216WMR968SP,2013-03-27 17:45:00,
2013-03-27 12:50:00,51.6,17.6,29.97,NNW,332,3.6,6.3,26,0.00,,,0.00,WUHU216WMR968SP,2013-03-27 17:50:00,
2013-03-27 12:55:00,50.9,15.2,29.97,West,267,3.1,5.8,24,0.00,,,0.00,WUHU216WMR968SP,2013-03-27 17:55:00,
2013-03-27 13:00:00,51.1,15.4,29.97,West,268,2.7,5.8,24,0.00,,,0.00,WUHU216WMR968SP,2013-03-27 18:00:00,
2013-03-27 13:05:00,51.4,15.7,29.97,NW,312,3.6,7.6,24,0.00,,,0.00,WUHU216WMR968SP,2013-03-27 18:05:00,
2013-03-27 13:10:00,51.8,17.8,29.97,North,353,3.6,7.6,26,0.00,,,0.00,WUHU216WMR968SP,2013-03-27 18:10:00,
2013-03-27 13:15:00,51.8,17.8,29.97,WNW,302,2.8,5.8,26,0.00,,,0.00,WUHU216WMR968SP,2013-03-27 18:15:00,
2013-03-27 13:20:00,51.8,15.0,29.97,WNW,296,2.7,5.8,23,0.00,,,0.00,WUHU216WMR968SP,2013-03-27 18:20:00,
2013-03-27 13:25:00,52.0,15.2,29.97,NNE,21,3.6,5.8,23,0.00,,,0.00,WUHU216WMR968SP,2013-03-27 18:25:00,
2013-03-27 13:30:00,52.0,15.2,29.97,WNW,300,3.7,6.3,23,0.00,,,0.00,WUHU216WMR968SP,2013-03-27 18:30:00,
2013-03-27 13:35:00,52.0,18.0,29.97,NW,316,4.5,8.1,26,0.00,,,0.00,WUHU216WMR968SP,2013-03-27 18:35:00,
2013-03-27 13:40:00,52.0,15.2,29.97,SSE,152,3.1,8.1,23,0.00,,,0.00,WUHU216WMR968SP,2013-03-27 18:40:00,
2013-03-27 13:45:00,52.5,15.6,29.97,NNW,339,3.6,8.1,23,0.00,,,0.00,WUHU216WMR968SP,2013-03-27 18:45:00,
2013-03-27 13:50:00,52.3,15.5,29.94,NW,308,3.6,8.1,23,0.00,,,0.00,WUHU216WMR968SP,2013-03-27 18:50:00,
2013-03-27 13:55:00,52.5,18.4,29.94,SSE,166,2.7,6.3,26,0.00,,,0.00,WUHU216WMR968SP,2013-03-27 18:55:00,
2013-03-27 14:00:00,53.2,16.2,29.94,SW,217,4.6,10.5,23,0.00,,,0.00,WUHU216WMR968SP,2013-03-27 19:00:00,
2013-03-27 14:05:00,53.6,16.6,29.94,SW,219,3.0,10.5,23,0.00,,,0.00,WUHU216WMR968SP,2013-03-27 19:05:00,
2013-03-27 14:10:00,53.8,18.6,29.94,SW,229,2.5,5.8,25,0.00,,,0.00,WUHU216WMR968SP,2013-03-27 19:10:00,
2013-03-27 14:15:00,54.0,16.9,29.94,SSW,204,5.4,6.3,23,0.00,,,0.00,WUHU216WMR968SP,2013-03-27 19:15:00,
2013-03-27 14:20:00,54.1,18.9,29.94,SSW,197,3.6,8.1,25,0.00,,,0.00,WUHU216WMR968SP,2013-03-27 19:20:00,
2013-03-27 14:25:00,54.5,17.3,29.94,SSE,161,4.8,10.5,23,0.00,,,0.00,WUHU216WMR968SP,2013-03-27 19:25:00,
2013-03-27 14:30:00,55.0,19.6,29.94,South,176,4.0,10.5,25,0.00,,,0.00,WUHU216WMR968SP,2013-03-27 19:30:00,
2013-03-27 14:35:00,55.6,17.2,29.94,SSW,194,5.9,8.3,22,0.00,,,0.00,WUHU216WMR968SP,2013-03-27 19:35:00,
2013-03-27 14:40:00,55.2,17.9,29.94,South,189,4.0,8.3,23,0.00,,,0.00,WUHU216WMR968SP,2013-03-27 19:40:00,
2013-03-27 14:45:00,54.9,17.7,29.94,SW,226,0.0,5.8,23,0.00,,,0.00,WUHU216WMR968SP,2013-03-27 19:45:00,
2013-03-27 14:50:00,55.4,17.1,29.91,South,169,4.5,8.1,22,0.00,,,0.00,WUHU216WMR968SP,2013-03-27 19:50:00,
2013-03-27 14:55:00,55.6,17.2,29.91,South,178,4.9,8.1,22,0.00,,,0.00,WUHU216WMR968SP,2013-03-27 19:55:00,
2013-03-27 15:00:00,55.4,17.1,29.91,SE,135,2.7,7.6,22,0.00,,,0.00,WUHU216WMR968SP,2013-03-27 20:00:00,
2013-03-27 15:05:00,54.7,14.3,29.91,SSW,202,0.0,5.4,20,0.00,,,0.00,WUHU216WMR968SP,2013-03-27 20:05:00,
2013-03-27 15:10:00,54.5,14.2,29.91,SSW,198,4.0,6.7,20,0.00,,,0.00,WUHU216WMR968SP,2013-03-27 20:10:00,
2013-03-27 15:15:00,54.9,17.7,29.91,SSW,201,3.5,8.3,23,0.00,,,0.00,WUHU216WMR968SP,2013-03-27 20:15:00,
2013-03-27 15:20:00,55.2,17.9,29.91,SW,216,2.2,8.3,23,0.00,,,0.00,WUHU216WMR968SP,2013-03-27 20:20:00,
2013-03-27 15:25:00,55.2,17.9,29.91,North,6,0.0,4.0,23,0.00,,,0.00,WUHU216WMR968SP,2013-03-27 20:25:00,
2013-03-27 15:30:00,54.7,17.5,29.91,NW,317,3.1,5.4,23,0.00,,,0.00,WUHU216WMR968SP,2013-03-27 20:30:00,
2013-03-27 15:35:00,54.7,17.5,29.91,NE,35,0.0,5.4,23,0.00,,,0.00,WUHU216WMR968SP,2013-03-27 20:35:00,
2013-03-27 15:40:00,55.0,17.7,29.91,South,180,0.0,3.6,23,0.00,,,0.00,WUHU216WMR968SP,2013-03-27 20:40:00,
2013-03-27 15:45:00,55.0,14.6,29.91,North,349,0.0,3.1,20,0.00,,,0.00,WUHU216WMR968SP,2013-03-27 20:45:00,
2013-03-27 15:50:00,55.0,14.6,29.91,NW,311,4.2,7.2,20,0.00,,,0.00,WUHU216WMR968SP,2013-03-27 20:50:00,
2013-03-27 15:55:00,55.0,14.6,29.91,NW,310,3.8,7.2,20,0.00,,,0.00,WUHU216WMR968SP,2013-03-27 20:55:00,
2013-03-27 16:00:00,54.9,14.5,29.91,North,0,2.7,5.8,20,0.00,,,0.00,WUHU216WMR968SP,2013-03-27 21:00:00,
2013-03-27 16:05:00,54.7,14.3,29.88,NW,307,3.0,6.7,20,0.00,,,0.00,WUHU216WMR968SP,2013-03-27 21:05:00,
2013-03-27 16:10:00,54.5,14.2,29.88,NE,39,3.4,6.7,20,0.00,,,0.00,WUHU216WMR968SP,2013-03-27 21:10:00,
2013-03-27 16:15:00,54.5,14.2,29.88,North,353,4.9,7.6,20,0.00,,,0.00,WUHU216WMR968SP,2013-03-27 21:15:00,
2013-03-27 16:20:00,54.9,14.5,29.88,NNW,330,3.3,7.6,20,0.00,,,0.00,WUHU216WMR968SP,2013-03-27 21:20:00,
2013-03-27 16:25:00,54.7,14.3,29.88,NW,312,2.7,7.2,20,0.00,,,0.00,WUHU216WMR968SP,2013-03-27 21:25:00,
2013-03-27 16:30:00,54.7,14.3,29.88,NW,323,2.7,4.9,20,0.00,,,0.00,WUHU216WMR968SP,2013-03-27 21:30:00,
2013-03-27 16:35:00,55.2,17.9,29.88,South,190,3.6,5.4,23,0.00,,,0.00,WUHU216WMR968SP,2013-03-27 21:35:00,
2013-03-27 16:40:00,55.4,14.9,29.88,West,268,0.0,5.4,20,0.00,,,0.00,WUHU216WMR968SP,2013-03-27 21:40:00,
2013-03-27 16:45:00,55.2,14.7,29.88,SSW,203,3.6,6.3,20,0.00,,,0.00,WUHU216WMR968SP,2013-03-27 21:45:00,
2013-03-27 16:50:00,55.2,14.7,29.88,SSW,201,3.1,6.3,20,0.00,,,0.00,WUHU216WMR968SP,2013-03-27 21:50:00,
2013-03-27 16:55:00,55.0,14.6,29.88,SSW,193,3.6,6.3,20,0.00,,,0.00,WUHU216WMR968SP,2013-03-27 21:55:00,
2013-03-27 17:00:00,55.2,14.7,29.88,SSW,211,4.5,8.1,20,0.00,,,0.00,WUHU216WMR968SP,2013-03-27 22:00:00,
2013-03-27 17:05:00,55.4,14.9,29.88,NW,326,2.2,8.1,20,0.00,,,0.00,WUHU216WMR968SP,2013-03-27 22:05:00,
2013-03-27 17:10:00,55.6,15.1,29.88,NW,310,2.2,6.3,20,0.00,,,0.00,WUHU216WMR968SP,2013-03-27 22:10:00,
2013-03-27 17:15:00,55.6,15.1,29.88,WSW,240,2.2,4.0,20,0.00,,,0.00,WUHU216WMR968SP,2013-03-27 22:15:00,
2013-03-27 17:20:00,55.2,14.7,29.88,West,266,0.0,4.0,20,0.00,,,0.00,WUHU216WMR968SP,2013-03-27 22:20:00,
2013-03-27 17:25:00,55.4,14.9,29.88,North,349,2.7,4.0,20,0.00,,,0.00,WUHU216WMR968SP,2013-03-27 22:25:00,
2013-03-27 17:30:00,55.4,14.9,29.88,NNE,30,4.5,5.8,20,0.00,,,0.00,WUHU216WMR968SP,2013-03-27 22:30:00,
2013-03-27 17:35:00,55.4,14.9,29.88,NW,324,2.7,5.8,20,0.00,,,0.00,WUHU216WMR968SP,2013-03-27 22:35:00,
2013-03-27 17:40:00,55.9,15.3,29.88,NNW,337,3.1,4.9,20,0.00,,,0.00,WUHU216WMR968SP,2013-03-27 22:40:00,
2013-03-27 17:45:00,56.3,15.7,29.88,North,3,3.1,4.0,20,0.00,,,0.00,WUHU216WMR968SP,2013-03-27 22:45:00,
2013-03-27 17:50:00,56.1,15.5,29.88,WNW,299,3.6,4.0,20,0.00,,,0.00,WUHU216WMR968SP,2013-03-27 22:50:00,
2013-03-27 17:55:00,56.1,15.5,29.88,SSE,155,0.0,4.0,20,0.00,,,0.00,WUHU216WMR968SP,2013-03-27 22:55:00,
2013-03-27 18:00:00,56.1,15.5,29.88,SW,226,0.0,3.6,20,0.00,,,0.00,WUHU216WMR968SP,2013-03-27 23:00:00,
2013-03-27 18:05:00,55.9,15.3,29.88,NNW,334,2.7,3.6,20,0.00,,,0.00,WUHU216WMR968SP,2013-03-27 23:05:00,
2013-03-27 18:10:00,56.7,16.0,29.88,WNW,291,2.2,3.6,20,0.00,,,0.00,WUHU216WMR968SP,2013-03-27 23:10:00,
2013-03-27 18:15:00,56.5,15.8,29.88,NNW,337,0.0,3.6,20,0.00,,,0.00,WUHU216WMR968SP,2013-03-27 23:15:00,
2013-03-27 18:20:00,56.1,15.5,29.88,NNE,24,2.4,4.0,20,0.00,,,0.00,WUHU216WMR968SP,2013-03-27 23:20:00,
2013-03-27 18:25:00,55.8,15.2,29.88,NNE,24,0.0,4.0,20,0.00,,,0.00,WUHU216WMR968SP,2013-03-27 23:25:00,
2013-03-27 18:30:00,55.0,14.6,29.88,NNE,24,0.0,2.2,20,0.00,,,0.00,WUHU216WMR968SP,2013-03-27 23:30:00,
2013-03-27 18:35:00,54.5,14.2,29.88,NNE,24,0.0,0.0,20,0.00,,,0.00,WUHU216WMR968SP,2013-03-27 23:35:00,
2013-03-27 18:40:00,54.0,13.7,29.88,NNE,24,0.0,0.0,20,0.00,,,0.00,WUHU216WMR968SP,2013-03-27 23:40:00,
2013-03-27 18:45:00,53.4,14.3,29.88,NNE,24,0.0,0.0,21,0.00,,,0.00,WUHU216WMR968SP,2013-03-27 23:45:00,
2013-03-27 18:50:00,53.1,14.1,29.88,NNE,24,0.0,0.0,21,0.00,,,0.00,WUHU216WMR968SP,2013-03-27 23:50:00,
2013-03-27 18:55:00,52.5,15.6,29.88,NNE,24,0.0,0.0,23,0.00,,,0.00,WUHU216WMR968SP,2013-03-27 23:55:00,
2013-03-27 19:00:00,52.0,15.2,29.88,NNE,24,0.0,0.0,23,0.00,,,0.00,WUHU216WMR968SP,2013-03-28 00:00:00,
2013-03-27 19:05:00,51.6,15.8,29.88,NNE,24,0.0,0.0,24,0.00,,,0.00,WUHU216WMR968SP,2013-03-28 00:05:00,
2013-03-27 19:10:00,50.9,15.2,29.88,NNE,24,0.0,0.0,24,0.00,,,0.00,WUHU216WMR968SP,2013-03-28 00:10:00,
2013-03-27 19:15:00,50.5,16.7,29.88,NNE,24,0.0,0.0,26,0.00,,,0.00,WUHU216WMR968SP,2013-03-28 00:15:00,
2013-03-27 19:20:00,50.2,16.4,29.88,NNE,24,0.0,0.0,26,0.00,,,0.00,WUHU216WMR968SP,2013-03-28 00:20:00,
2013-03-27 19:25:00,49.8,16.1,29.88,NNE,24,0.0,0.0,26,0.00,,,0.00,WUHU216WMR968SP,2013-03-28 00:25:00,
2013-03-27 19:30:00,49.3,15.7,29.88,NNE,24,0.0,0.0,26,0.00,,,0.00,WUHU216WMR968SP,2013-03-28 00:30:00,
2013-03-27 19:35:00,49.1,16.3,29.88,NNE,24,0.0,0.0,27,0.00,,,0.00,WUHU216WMR968SP,2013-03-28 00:35:00,
2013-03-27 19:40:00,49.1,16.3,29.88,NNE,24,0.0,0.0,27,0.00,,,0.00,WUHU216WMR968SP,2013-03-28 00:40:00,
2013-03-27 19:45:00,48.9,16.2,29.88,NNE,24,0.0,0.0,27,0.00,,,0.00,WUHU216WMR968SP,2013-03-28 00:45:00,
2013-03-27 19:50:00,48.6,15.9,29.88,NNE,24,0.0,0.0,27,0.00,,,0.00,WUHU216WMR968SP,2013-03-28 00:50:00,
2013-03-27 19:55:00,48.2,15.6,29.88,NNE,24,0.0,0.0,27,0.00,,,0.00,WUHU216WMR968SP,2013-03-28 00:55:00,
2013-03-27 20:00:00,47.8,16.0,29.88,NNE,24,0.0,0.0,28,0.00,,,0.00,WUHU216WMR968SP,2013-03-28 01:00:00,
2013-03-27 20:05:00,47.5,15.8,29.88,NNE,24,0.0,0.0,28,0.00,,,0.00,WUHU216WMR968SP,2013-03-28 01:05:00,
2013-03-27 20:10:00,47.1,18.5,29.88,NNE,24,0.0,0.0,32,0.00,,,0.00,WUHU216WMR968SP,2013-03-28 01:10:00,
2013-03-27 20:15:00,46.9,19.0,29.88,NNE,24,0.0,0.0,33,0.00,,,0.00,WUHU216WMR968SP,2013-03-28 01:15:00,
2013-03-27 20:20:00,46.6,18.8,29.88,NNE,24,0.0,0.0,33,0.00,,,0.00,WUHU216WMR968SP,2013-03-28 01:20:00,
2013-03-27 20:25:00,46.2,18.4,29.88,NNE,24,0.0,0.0,33,0.00,,,0.00,WUHU216WMR968SP,2013-03-28 01:25:00,
2013-03-27 20:30:00,46.2,18.4,29.88,NNE,24,0.0,0.0,33,0.00,,,0.00,WUHU216WMR968SP,2013-03-28 01:30:00,
2013-03-27 20:35:00,45.9,18.2,29.88,NNE,24,0.0,0.0,33,0.00,,,0.00,WUHU216WMR968SP,2013-03-28 01:35:00,
2013-03-27 20:40:00,45.7,21.3,29.88,NNE,24,0.0,0.0,38,0.00,,,0.00,WUHU216WMR968SP,2013-03-28 01:40:00,
2013-03-27 20:45:00,45.5,24.1,29.88,NNE,24,0.0,0.0,43,0.00,,,0.00,WUHU216WMR968SP,2013-03-28 01:45:00,
2013-03-27 20:50:00,45.0,23.7,29.88,NNE,24,0.0,0.0,43,0.00,,,0.00,WUHU216WMR968SP,2013-03-28 01:50:00,
2013-03-27 20:55:00,44.4,22.0,29.88,NNE,24,0.0,0.0,41,0.00,,,0.00,WUHU216WMR968SP,2013-03-28 01:55:00,
2013-03-27 21:00:00,44.1,21.7,29.88,NNE,24,0.0,0.0,41,0.00,,,0.00,WUHU216WMR968SP,2013-03-28 02:00:00,
2013-03-27 21:05:00,43.7,20.7,29.88,NNE,24,0.0,0.0,40,0.00,,,0.00,WUHU216WMR968SP,2013-03-28 02:05:00,
2013-03-27 21:10:00,43.5,20.6,29.88,NNE,24,0.0,0.0,40,0.00,,,0.00,WUHU216WMR968SP,2013-03-28 02:10:00,
2013-03-27 21:15:00,43.3,20.4,29.88,NNE,24,0.0,0.0,40,0.00,,,0.00,WUHU216WMR968SP,2013-03-28 02:15:00,
2013-03-27 21:20:00,43.0,20.1,29.88,NNE,24,0.0,0.0,40,0.00,,,0.00,WUHU216WMR968SP,2013-03-28 02:20:00,
2013-03-27 21:25:00,42.8,19.9,29.88,NNE,24,0.0,0.0,40,0.00,,,0.00,WUHU216WMR968SP,2013-03-28 02:25:00,
2013-03-27 21:30:00,42.6,20.3,29.88,NNE,24,0.0,0.0,41,0.00,,,0.00,WUHU216WMR968SP,2013-03-28 02:30:00,
2013-03-27 21:35:00,42.4,20.2,29.88,NNE,24,0.0,0.0,41,0.00,,,0.00,WUHU216WMR968SP,2013-03-28 02:35:00,
2013-03-27 21:40:00,42.1,20.5,29.88,NNE,24,0.0,0.0,42,0.00,,,0.00,WUHU216WMR968SP,2013-03-28 02:40:00,
2013-03-27 21:45:00,41.7,20.1,29.88,NNE,24,0.0,0.0,42,0.00,,,0.00,WUHU216WMR968SP,2013-03-28 02:45:00,
2013-03-27 21:50:00,41.4,19.8,29.88,NNE,24,0.0,0.0,42,0.00,,,0.00,WUHU216WMR968SP,2013-03-28 02:50:00,
2013-03-27 21:55:00,41.2,20.2,29.88,NNE,24,0.0,0.0,43,0.00,,,0.00,WUHU216WMR968SP,2013-03-28 02:55:00,
2013-03-27 22:00:00,41.2,20.2,29.88,NNE,24,0.0,0.0,43,0.00,,,0.00,WUHU216WMR968SP,2013-03-28 03:00:00,
2013-03-27 22:05:00,40.8,20.4,29.88,NNE,24,0.0,0.0,44,0.00,,,0.00,WUHU216WMR968SP,2013-03-28 03:05:00,
2013-03-27 22:10:00,40.6,20.2,29.88,NNE,24,0.0,2.7,44,0.00,,,0.00,WUHU216WMR968SP,2013-03-28 03:10:00,
2013-03-27 22:15:00,40.6,21.3,29.88,NNE,15,0.0,4.0,46,0.00,,,0.00,WUHU216WMR968SP,2013-03-28 03:15:00,
2013-03-27 22:20:00,40.6,21.8,29.88,NNE,16,0.0,4.0,47,0.00,,,0.00,WUHU216WMR968SP,2013-03-28 03:20:00,
2013-03-27 22:25:00,40.6,21.8,29.88,NNE,16,0.0,0.0,47,0.00,,,0.00,WUHU216WMR968SP,2013-03-28 03:25:00,
2013-03-27 22:30:00,40.5,21.7,29.88,NNE,15,0.0,0.0,47,0.00,,,0.00,WUHU216WMR968SP,2013-03-28 03:30:00,
2013-03-27 22:35:00,39.9,20.7,29.88,NNE,15,0.0,0.0,46,0.00,,,0.00,WUHU216WMR968SP,2013-03-28 03:35:00,
2013-03-27 22:40:00,39.7,21.5,29.88,NNE,15,0.0,0.0,48,0.00,,,0.00,WUHU216WMR968SP,2013-03-28 03:40:00,
2013-03-27 22:45:00,39.2,21.1,29.88,NNE,15,0.0,0.0,48,0.00,,,0.00,WUHU216WMR968SP,2013-03-28 03:45:00,
2013-03-27 22:50:00,39.4,22.2,29.88,NNE,16,0.0,0.0,50,0.00,,,0.00,WUHU216WMR968SP,2013-03-28 03:50:00,
2013-03-27 22:55:00,39.0,22.4,29.88,NNE,16,0.0,0.0,51,0.00,,,0.00,WUHU216WMR968SP,2013-03-28 03:55:00,
2013-03-27 23:00:00,38.8,22.6,29.88,NNE,15,0.0,0.0,52,0.00,,,0.00,WUHU216WMR968SP,2013-03-28 04:00:00,
2013-03-27 23:05:00,38.5,22.4,29.88,NNE,16,0.0,0.0,52,0.00,,,0.00,WUHU216WMR968SP,2013-03-28 04:05:00,
2013-03-27 23:10:00,38.5,22.4,29.88,NNE,16,0.0,0.0,52,0.00,,,0.00,WUHU216WMR968SP,2013-03-28 04:10:00,
2013-03-27 23:15:00,38.5,22.4,29.88,NNE,16,0.0,0.0,52,0.00,,,0.00,WUHU216WMR968SP,2013-03-28 04:15:00,
2013-03-27 23:20:00,38.7,22.6,29.88,NNE,15,0.0,0.0,52,0.00,,,0.00,WUHU216WMR968SP,2013-03-28 04:20:00,
2013-03-27 23:25:00,38.7,22.6,29.88,NNE,15,0.0,0.0,52,0.00,,,0.00,WUHU216WMR968SP,2013-03-28 04:25:00,
2013-03-27 23:30:00,38.5,21.9,29.88,NNE,15,0.0,0.0,51,0.00,,,0.00,WUHU216WMR968SP,2013-03-28 04:30:00,
2013-03-27 23:35:00,38.5,21.9,29.88,NNE,15,0.0,0.0,51,0.00,,,0.00,WUHU216WMR968SP,2013-03-28 04:35:00,
2013-03-27 23:40:00,38.3,21.7,29.88,NNE,15,0.0,0.0,51,0.00,,,0.00,WUHU216WMR968SP,2013-03-28 04:40:00,
2013-03-27 23:45:00,38.1,21.5,29.88,NNE,15,0.0,0.0,51,0.00,,,0.00,WUHU216WMR968SP,2013-03-28 04:45:00,
2013-03-27 23:50:00,38.1,22.0,29.88,NNE,15,0.0,0.0,52,0.00,,,0.00,WUHU216WMR968SP,2013-03-28 04:50:00,
2013-03-27 23:55:00,37.9,21.8,29.88,NNE,15,0.0,0.0,52,0.00,,,0.00,WUHU216WMR968SP,2013-03-28 04:55:00,